Time;durP1;ratioP1;P1;durP2;ratioP2;P2;SDS_P1;SDS_P2;PMS_P1;PMS_P2;Temp;Humidity;BMP_temperature;BMP_pressure;BME280_temperature;BME280_humidity;BME280_pressure;Samples;Min_cycle;Max_cycle;Signal;HPM_P1;HPM_P2
2023/10/07 00:00:48;;;;;;;744.78;667.00;;;27.80;99.90;;;;;;5030318;28;20112;-64
2023/10/07 00:03:17;;;;;;;719.70;644.03;;;27.90;99.90;;;;;;5030155;28;20125;-64
2023/10/07 00:05:46;;;;;;;682.13;609.42;;;27.90;99.90;;;;;;5030567;28;20102;-64
2023/10/07 00:08:16;;;;;;;807.97;724.70;;;27.90;99.90;;;;;;5043082;28;20040;-64
2023/10/07 00:10:46;;;;;;;786.63;704.95;;;28.00;99.90;;;;;;5049938;28;20033;-65
2023/10/07 00:13:14;;;;;;;713.67;638.28;;;28.00;99.90;;;;;;5049867;28;20021;-64
2023/10/07 00:15:43;;;;;;;807.78;725.55;;;28.00;99.90;;;;;;5049769;28;20032;-64
2023/10/07 00:20:44;;;;;;;794.72;714.20;;;28.10;99.90;;;;;;5049771;28;20029;-65
2023/10/07 00:23:35;;;;;;;808.75;725.30;;;28.20;99.90;;;;;;5034747;28;20053;-64
2023/10/07 00:25:59;;;;;;;810.75;726.60;;;28.20;99.90;;;;;;5029340;28;20061;-65
2023/10/07 00:28:31;;;;;;;794.80;714.10;;;28.30;99.90;;;;;;5030311;28;20044;-64
2023/10/07 00:31:03;;;;;;;757.63;678.28;;;28.30;99.90;;;;;;5029694;28;20104;-65
2023/10/07 00:33:45;;;;;;;782.45;700.90;;;28.40;99.90;;;;;;5029546;28;20091;-65
2023/10/07 00:36:14;;;;;;;647.17;577.28;;;28.40;99.90;;;;;;5029645;28;20150;-66
2023/10/07 00:38:43;;;;;;;639.05;570.33;;;28.50;99.90;;;;;;5029789;28;20053;-66
2023/10/07 00:41:11;;;;;;;750.42;672.90;;;28.60;99.90;;;;;;5029621;28;20117;-66
2023/10/07 00:43:38;;;;;;;779.53;699.85;;;28.60;99.90;;;;;;5029619;28;20108;-65
2023/10/07 00:46:10;;;;;;;710.47;636.95;;;28.70;99.90;;;;;;5031767;28;20033;-66
2023/10/07 00:51:34;;;;;;;717.95;644.80;;;28.80;99.90;;;;;;5049001;28;20432;-66
2023/10/07 00:54:17;;;;;;;774.38;696.75;;;28.90;99.90;;;;;;5033059;28;20378;-66
2023/10/07 00:59:32;;;;;;;772.47;695.20;;;29.00;99.90;;;;;;5032722;28;20029;-66
2023/10/07 01:01:59;;;;;;;751.53;676.28;;;29.00;99.90;;;;;;5032552;28;20095;-66
2023/10/07 01:04:39;;;;;;;705.60;634.38;;;29.10;99.90;;;;;;5032841;28;20025;-66
2023/10/07 01:07:13;;;;;;;770.70;694.20;;;29.20;99.90;;;;;;5033043;28;20519;-65
2023/10/07 01:09:39;;;;;;;742.80;668.70;;;29.20;99.90;;;;;;5032778;28;20029;-65
2023/10/07 01:12:08;;;;;;;747.20;673.85;;;29.20;99.90;;;;;;5032635;28;20032;-66
2023/10/07 01:14:35;;;;;;;775.38;698.83;;;29.30;99.90;;;;;;5032366;28;20129;-66
2023/10/07 01:17:03;;;;;;;751.75;677.20;;;29.30;99.90;;;;;;5032478;28;20045;-66
2023/10/07 01:19:35;;;;;;;833.08;749.90;;;29.50;99.90;;;;;;5032459;28;20467;-65
2023/10/07 01:22:09;;;;;;;780.67;701.10;;;29.50;99.90;;;;;;5032339;28;20112;-66
2023/10/07 01:24:44;;;;;;;804.05;723.92;;;29.60;99.90;;;;;;5032510;28;20082;-66
2023/10/07 01:27:28;;;;;;;788.50;707.65;;;29.60;99.90;;;;;;5032533;28;20081;-65
2023/10/07 01:32:33;;;;;;;715.35;641.67;;;29.70;99.90;;;;;;5032281;28;20017;-65
2023/10/07 01:35:11;;;;;;;656.80;591.70;;;29.80;99.90;;;;;;5030966;28;20022;-64
2023/10/07 01:40:27;;;;;;;753.97;679.92;;;29.90;99.90;;;;;;5000111;28;20034;-68
2023/10/07 01:42:54;;;;;;;747.70;673.28;;;30.00;99.90;;;;;;5012238;28;20361;-70
2023/10/07 01:45:20;;;;;;;746.28;672.53;;;30.00;99.90;;;;;;5012457;28;20068;-69
2023/10/07 01:47:49;;;;;;;762.80;686.42;;;30.10;99.90;;;;;;5012048;28;20014;-69
2023/10/07 01:50:18;;;;;;;781.97;705.10;;;30.10;99.90;;;;;;5011157;28;20030;-70
2023/10/07 01:52:48;;;;;;;769.72;692.85;;;30.20;99.90;;;;;;5012201;28;20090;-72
2023/10/07 01:55:16;;;;;;;775.78;699.30;;;30.30;99.90;;;;;;5012075;28;20423;-71
2023/10/07 01:57:44;;;;;;;713.67;643.55;;;30.40;99.90;;;;;;5011347;28;20376;-71
2023/10/07 02:00:13;;;;;;;716.80;646.25;;;30.40;99.90;;;;;;5012072;28;20030;-71
2023/10/07 02:02:49;;;;;;;765.63;689.97;;;30.30;99.90;;;;;;5010243;28;20100;-72
2023/10/07 02:05:21;;;;;;;733.53;661.53;;;30.30;99.90;;;;;;5010779;28;20133;-72
2023/10/07 02:07:54;;;;;;;733.70;661.92;;;30.30;99.90;;;;;;5010957;28;20034;-73
2023/10/07 02:10:26;;;;;;;721.15;651.33;;;30.30;99.90;;;;;;5011259;28;20490;-73
2023/10/07 02:12:54;;;;;;;688.85;621.42;;;30.30;99.90;;;;;;5011282;28;20022;-72
2023/10/07 02:15:21;;;;;;;661.00;595.95;;;30.30;99.90;;;;;;5011326;28;20034;-73
2023/10/07 02:17:48;;;;;;;573.53;515.55;;;30.40;99.90;;;;;;5011614;28;20022;-71
2023/10/07 02:20:25;;;;;;;628.00;565.88;;;30.60;99.90;;;;;;5011671;28;20116;-72
2023/10/07 02:22:52;;;;;;;486.60;436.02;;;30.70;99.90;;;;;;5011692;28;20033;-72
2023/10/07 02:25:26;;;;;;;452.30;403.92;;;30.80;99.90;;;;;;5011799;28;20092;-72
2023/10/07 02:27:55;;;;;;;446.23;398.70;;;30.90;99.90;;;;;;5011443;28;20137;-71
2023/10/07 02:30:25;;;;;;;447.98;399.40;;;31.00;99.90;;;;;;5011496;28;20018;-72
2023/10/07 02:32:52;;;;;;;446.38;397.83;;;31.10;99.90;;;;;;5011932;28;20046;-71
2023/10/07 02:35:19;;;;;;;425.35;378.75;;;31.20;99.90;;;;;;5011427;28;20030;-72
2023/10/07 02:37:57;;;;;;;440.65;393.15;;;31.30;99.90;;;;;;5011841;28;20018;-71
2023/10/07 02:40:35;;;;;;;404.73;360.73;;;31.40;99.90;;;;;;5011756;28;20028;-72
2023/10/07 02:43:15;;;;;;;388.55;346.17;;;31.40;99.90;;;;;;5011641;28;20411;-72
2023/10/07 02:45:43;;;;;;;394.42;348.17;;;31.30;99.90;;;;;;5011226;28;20033;-71
2023/10/07 02:48:11;;;;;;;400.52;352.42;;;31.30;99.90;;;;;;5010971;28;20464;-72
2023/10/07 02:50:40;;;;;;;366.08;325.73;;;31.40;99.90;;;;;;5009907;28;20030;-73
2023/10/07 02:53:16;;;;;;;372.60;331.42;;;31.40;99.90;;;;;;5011081;28;20035;-72
2023/10/07 02:58:32;;;;;;;365.60;326.05;;;31.60;99.90;;;;;;5011083;28;20097;-73
2023/10/07 03:01:11;;;;;;;386.65;336.67;;;31.60;99.90;;;;;;5010724;28;20029;-72
2023/10/07 03:03:40;;;;;;;411.52;366.58;;;31.80;99.90;;;;;;5010683;28;20054;-72
2023/10/07 03:06:08;;;;;;;376.20;335.42;;;31.80;99.90;;;;;;5010753;28;20030;-72
2023/10/07 03:11:20;;;;;;;462.70;390.00;;;31.80;99.90;;;;;;5010827;28;20018;-73
2023/10/07 03:13:50;;;;;;;362.10;322.95;;;31.80;99.90;;;;;;5010868;28;20098;-73
2023/10/07 03:18:56;;;;;;;297.27;266.65;;;31.80;99.90;;;;;;5010867;28;20109;-73
2023/10/07 03:21:55;;;;;;;314.35;282.63;;;31.80;99.90;;;;;;5010771;28;20030;-73
2023/10/07 03:24:12;;;;;;;282.85;254.52;;;32.00;99.90;;;;;;5010533;28;20095;-71
2023/10/07 03:26:41;;;;;;;292.33;263.98;;;32.10;99.90;;;;;;5010797;28;20050;-70
2023/10/07 03:29:08;;;;;;;264.58;238.52;;;32.10;99.90;;;;;;5010337;28;20034;-71
2023/10/07 03:31:47;;;;;;;289.50;261.48;;;32.20;99.90;;;;;;5010502;28;20026;-72
2023/10/07 03:34:14;;;;;;;306.73;276.88;;;32.20;99.90;;;;;;5010211;28;20137;-69
2023/10/07 03:36:45;;;;;;;312.17;282.23;;;32.30;99.90;;;;;;5020445;28;20451;-70
2023/10/07 03:41:55;;;;;;;310.63;280.88;;;32.50;99.90;;;;;;5018631;28;20034;-69
2023/10/07 03:44:27;;;;;;;288.10;260.60;;;32.40;99.90;;;;;;5018418;28;20105;-70
2023/10/07 03:46:57;;;;;;;310.58;279.73;;;32.40;99.90;;;;;;5023899;28;20448;-68
2023/10/07 03:49:28;;;;;;;344.98;310.48;;;32.40;99.90;;;;;;5024303;28;20024;-67
2023/10/07 03:52:03;;;;;;;393.40;352.37;;;32.50;99.90;;;;;;5019009;28;20074;-67
2023/10/07 03:54:31;;;;;;;334.23;300.95;;;32.60;99.90;;;;;;5019246;28;20478;-66
2023/10/07 03:57:00;;;;;;;329.23;296.05;;;32.70;99.90;;;;;;5018495;28;20029;-68
2023/10/07 03:59:31;;;;;;;322.98;290.13;;;32.80;99.90;;;;;;5019063;28;20026;-67
2023/10/07 04:02:00;;;;;;;282.17;253.95;;;33.10;99.90;;;;;;5017986;28;20416;-68
2023/10/07 04:04:28;;;;;;;247.85;222.90;;;33.10;99.90;;;;;;5020200;28;20174;-68
2023/10/07 04:06:57;;;;;;;292.23;263.33;;;33.00;99.90;;;;;;5020036;28;20057;-66
2023/10/07 04:09:32;;;;;;;235.73;212.13;;;33.00;99.90;;;;;;5009789;28;20130;-69
2023/10/07 04:11:59;;;;;;;244.48;218.50;;;33.00;99.90;;;;;;5010180;28;20033;-67
2023/10/07 04:14:29;;;;;;;211.30;188.75;;;33.00;99.90;;;;;;5010157;28;20025;-67
2023/10/07 04:17:11;;;;;;;318.33;286.67;;;33.10;99.90;;;;;;5010323;28;20032;-64
2023/10/07 04:19:40;;;;;;;509.88;457.80;;;33.30;99.90;;;;;;5016715;28;20087;-65
2023/10/07 04:22:08;;;;;;;505.80;454.10;;;33.30;99.90;;;;;;5023345;28;20041;-65
2023/10/07 04:24:38;;;;;;;464.73;417.98;;;33.30;99.90;;;;;;5021910;28;20360;-70
2023/10/07 04:27:06;;;;;;;481.40;431.55;;;33.40;99.90;;;;;;5022579;28;20070;-72
2023/10/07 04:29:33;;;;;;;540.05;484.63;;;33.40;99.90;;;;;;5019365;28;20503;-71
2023/10/07 04:32:10;;;;;;;560.22;503.48;;;33.50;99.90;;;;;;5023770;28;20535;-71
2023/10/07 04:34:48;;;;;;;575.40;516.90;;;33.50;99.90;;;;;;5023601;28;20017;-72
2023/10/07 04:37:18;;;;;;;446.15;400.25;;;33.60;99.90;;;;;;5023823;28;20018;-68
2023/10/07 04:42:20;;;;;;;288.67;259.23;;;33.60;99.90;;;;;;5022050;28;20018;-71
2023/10/07 04:50:15;;;;;;;302.05;272.17;;;33.60;99.90;;;;;;5021931;28;20039;-71
2023/10/07 04:52:50;;;;;;;331.98;297.73;;;33.70;99.90;;;;;;5018563;28;20050;-65
2023/10/07 04:55:27;;;;;;;282.63;254.10;;;33.70;99.90;;;;;;5023414;28;20040;-65
2023/10/07 05:03:01;;;;;;;416.95;374.13;;;33.90;99.90;;;;;;5021036;28;20136;-65
2023/10/07 05:05:32;;;;;;;308.40;278.08;;;33.90;99.80;;;;;;5022057;28;20021;-70
2023/10/07 05:08:22;;;;;;;309.20;278.88;;;34.00;99.60;;;;;;5021171;28;20057;-71
2023/10/07 05:10:52;;;;;;;327.42;295.13;;;34.00;99.00;;;;;;5022523;28;20057;-69
2023/10/07 05:13:19;;;;;;;672.40;524.53;;;34.00;98.90;;;;;;5021059;28;20033;-65
2023/10/07 05:15:46;;;;;;;932.95;669.97;;;34.10;99.30;;;;;;5021566;28;20373;-67
2023/10/07 05:18:16;;;;;;;471.50;420.40;;;34.20;98.60;;;;;;5022608;28;20036;-68
2023/10/07 05:20:46;;;;;;;349.38;312.90;;;34.20;98.80;;;;;;5021122;28;20110;-65
2023/10/07 05:23:14;;;;;;;295.25;266.38;;;34.20;98.20;;;;;;5017858;28;20041;-64
2023/10/07 05:25:48;;;;;;;284.05;256.88;;;34.30;98.20;;;;;;5022085;28;20018;-66
2023/10/07 05:28:20;;;;;;;280.58;254.07;;;34.30;96.90;;;;;;5021901;28;20022;-70
2023/10/07 05:33:25;;;;;;;259.80;235.07;;;34.40;97.90;;;;;;5017119;28;20437;-71
2023/10/07 05:35:58;;;;;;;217.20;196.32;;;34.40;97.70;;;;;;5018339;28;20029;-70
2023/10/07 05:38:25;;;;;;;238.73;216.60;;;34.50;97.60;;;;;;5021650;28;20037;-73
2023/10/07 05:40:52;;;;;;;259.10;234.75;;;34.60;97.30;;;;;;5023348;28;20034;-69
2023/10/07 05:43:19;;;;;;;243.93;221.30;;;34.70;97.00;;;;;;5019215;28;20026;-71
2023/10/07 05:45:45;;;;;;;247.30;224.10;;;34.80;96.20;;;;;;5018202;28;20029;-69
2023/10/07 05:48:12;;;;;;;223.02;202.65;;;34.90;96.90;;;;;;5023768;28;20030;-69
2023/10/07 05:50:39;;;;;;;222.45;201.82;;;34.90;95.70;;;;;;5020491;28;20026;-69
2023/10/07 05:53:06;;;;;;;216.02;196.10;;;34.70;95.30;;;;;;5020468;28;20020;-72
2023/10/07 05:55:33;;;;;;;222.68;202.60;;;34.70;95.60;;;;;;5019605;28;20018;-68
2023/10/07 05:58:02;;;;;;;241.05;218.65;;;34.70;95.90;;;;;;5022690;28;20037;-67
2023/10/07 06:00:31;;;;;;;208.43;189.38;;;34.80;95.70;;;;;;5017960;28;20026;-67
2023/10/07 06:03:12;;;;;;;221.95;201.07;;;34.80;95.60;;;;;;5022198;28;20053;-67
2023/10/07 06:05:43;;;;;;;258.02;233.10;;;34.70;95.00;;;;;;5071362;28;20052;-73
2023/10/07 06:08:10;;;;;;;424.33;380.92;;;34.70;95.40;;;;;;5071776;28;20036;-73
2023/10/07 06:10:38;;;;;;;425.17;381.83;;;34.80;94.80;;;;;;5068882;28;20355;-74
2023/10/07 06:13:08;;;;;;;433.83;389.58;;;34.90;95.10;;;;;;5069491;28;20012;-73
2023/10/07 06:15:37;;;;;;;189.13;171.60;;;34.90;95.10;;;;;;5070368;28;20116;-74
2023/10/07 06:18:05;;;;;;;365.67;328.48;;;34.90;94.70;;;;;;5070577;28;20040;-71
2023/10/07 06:20:46;;;;;;;437.58;393.23;;;34.90;94.40;;;;;;5070959;28;20026;-72
2023/10/07 06:23:14;;;;;;;443.73;398.73;;;34.80;94.50;;;;;;5070094;28;20074;-73
2023/10/07 06:25:54;;;;;;;455.95;409.15;;;34.70;93.70;;;;;;5072375;28;20020;-72
2023/10/07 06:31:13;;;;;;;416.58;374.35;;;35.00;94.10;;;;;;5070999;28;20021;-69
2023/10/07 06:33:45;;;;;;;419.90;377.58;;;35.10;94.00;;;;;;5071226;28;20098;-70
2023/10/07 06:36:14;;;;;;;;;;;35.20;93.20;;;;;;5070463;28;20044;-71
2023/10/07 06:38:51;;;;;;;362.70;327.17;;;35.30;93.30;;;;;;5072113;28;19999;-70
2023/10/07 06:41:18;;;;;;;350.20;316.25;;;35.30;93.80;;;;;;5070663;28;20029;-68
2023/10/07 06:43:50;;;;;;;382.92;344.35;;;35.30;93.60;;;;;;5071721;28;20025;-70
2023/10/07 06:46:20;;;;;;;389.20;350.35;;;35.40;93.40;;;;;;5072300;28;20028;-67
2023/10/07 06:48:49;;;;;;;388.45;348.50;;;35.50;93.40;;;;;;5072738;28;20036;-67
2023/10/07 06:51:16;;;;;;;398.42;357.50;;;35.60;92.70;;;;;;5072438;28;20024;-69
2023/10/07 06:53:43;;;;;;;419.95;377.20;;;35.70;93.50;;;;;;5072672;28;20033;-67
2023/10/07 06:56:20;;;;;;;393.80;353.80;;;35.70;92.50;;;;;;5072128;28;20028;-67
2023/10/07 06:58:53;;;;;;;392.27;353.25;;;35.70;92.20;;;;;;5071292;28;20020;-68
2023/10/07 07:01:36;;;;;;;407.27;365.27;;;35.70;92.00;;;;;;5071631;28;20112;-68
2023/10/07 07:04:11;;;;;;;390.25;351.30;;;35.70;92.10;;;;;;5070587;28;20124;-67
2023/10/07 07:06:57;;;;;;;408.42;366.98;;;35.70;91.10;;;;;;5070102;28;20024;-68
2023/10/07 07:12:16;;;;;;;435.83;391.48;;;35.70;90.60;;;;;;5069235;28;20108;-67
2023/10/07 07:14:50;;;;;;;439.63;394.23;;;35.80;88.10;;;;;;5071492;28;20096;-68
2023/10/07 07:17:29;;;;;;;377.73;338.23;;;35.80;88.60;;;;;;5071392;28;20023;-67
2023/10/07 07:22:35;;;;;;;499.30;448.55;;;35.90;87.80;;;;;;5071579;28;20372;-67
2023/10/07 07:25:05;;;;;;;491.23;440.98;;;36.00;89.00;;;;;;5071371;28;20027;-67
2023/10/07 07:27:35;;;;;;;492.23;441.60;;;36.00;87.40;;;;;;5068975;28;20025;-67
2023/10/07 07:30:03;;;;;;;491.83;441.35;;;36.00;87.10;;;;;;5071178;28;20025;-68
2023/10/07 07:32:39;;;;;;;500.77;449.73;;;36.00;87.30;;;;;;5068514;28;20031;-68
2023/10/07 07:35:06;;;;;;;491.90;441.27;;;36.00;86.50;;;;;;5071265;28;20471;-68
2023/10/07 07:37:33;;;;;;;505.90;454.27;;;36.10;87.50;;;;;;5069323;28;20052;-69
2023/10/07 07:42:55;;;;;;;551.53;495.33;;;36.10;86.70;;;;;;5055218;28;20048;-68
2023/10/07 07:45:27;;;;;;;548.05;492.05;;;36.20;85.70;;;;;;5068568;28;20081;-68
2023/10/07 07:47:54;;;;;;;558.63;501.90;;;36.00;84.40;;;;;;5072890;28;20029;-70
2023/10/07 07:50:21;;;;;;;549.17;493.65;;;35.80;85.30;;;;;;5072889;28;20130;-67
2023/10/07 07:52:49;;;;;;;635.10;568.92;;;35.90;87.20;;;;;;5094165;22;20017;-67
2023/10/07 07:55:16;;;;;;;756.85;683.75;;;36.00;84.90;;;;;;5052570;28;20041;-67
2023/10/07 07:57:44;;;;;;;744.20;672.50;;;35.90;84.50;;;;;;5055672;28;20033;-66
2023/10/07 08:00:20;;;;;;;704.25;634.70;;;35.90;85.50;;;;;;5055958;28;20033;-69
2023/10/07 08:02:48;;;;;;;702.35;633.00;;;36.00;85.00;;;;;;5035044;28;20080;-69
2023/10/07 08:05:16;;;;;;;853.45;770.75;;;36.10;85.80;;;;;;5036665;28;20079;-70
2023/10/07 08:07:51;;;;;;;782.80;706.63;;;36.10;84.20;;;;;;5036340;28;20022;-70
2023/10/07 08:10:22;;;;;;;920.63;831.28;;;35.90;82.90;;;;;;5034296;28;20152;-70
2023/10/07 08:12:50;;;;;;;812.15;733.42;;;35.90;83.40;;;;;;5035514;28;20072;-68
2023/10/07 08:17:46;;;;;;;509.27;456.60;;;35.90;83.80;;;;;;5036113;28;20021;-69
2023/10/07 08:20:13;;;;;;;483.25;433.25;;;35.90;85.20;;;;;;5036019;28;20033;-68
2023/10/07 08:22:52;;;;;;;496.65;444.90;;;36.00;84.10;;;;;;5036029;28;20033;-69
2023/10/07 08:25:37;;;;;;;511.90;459.20;;;36.00;83.80;;;;;;5036129;28;20034;-68
2023/10/07 08:30:53;;;;;;;596.08;535.85;;;35.80;83.10;;;;;;5034360;28;20052;-68
2023/10/07 08:33:23;;;;;;;772.67;697.80;;;35.80;83.00;;;;;;5035214;28;20080;-68
2023/10/07 08:35:51;;;;;;;799.38;721.60;;;35.80;81.60;;;;;;5036111;28;20070;-69
2023/10/07 08:38:22;;;;;;;676.00;608.38;;;35.70;82.60;;;;;;5036138;28;20029;-69
2023/10/07 08:41:10;;;;;;;734.75;662.88;;;35.70;83.50;;;;;;5035985;28;20021;-68
2023/10/07 08:43:43;;;;;;;758.92;684.10;;;35.80;83.30;;;;;;5035972;28;20021;-69
2023/10/07 08:46:16;;;;;;;773.53;698.35;;;35.70;83.60;;;;;;5035864;28;20017;-68
2023/10/07 08:48:49;;;;;;;892.78;805.85;;;35.70;82.20;;;;;;5035805;28;20049;-69
2023/10/07 08:51:21;;;;;;;929.38;837.60;;;35.70;83.60;;;;;;5035968;28;20091;-68
2023/10/07 08:53:48;;;;;;;977.78;881.08;;;35.70;82.00;;;;;;5035824;28;20127;-68
2023/10/07 08:56:17;;;;;;;1009.10;909.17;;;35.70;81.20;;;;;;5035825;28;20429;-69
2023/10/07 08:58:43;;;;;;;996.65;897.42;;;35.70;81.50;;;;;;5035475;28;20428;-69
2023/10/07 09:01:17;;;;;;;1011.65;911.33;;;35.60;80.60;;;;;;5035645;28;20055;-69
2023/10/07 09:03:49;;;;;;;1010.38;909.60;;;35.60;82.40;;;;;;5035721;28;20030;-69
2023/10/07 09:06:16;;;;;;;1026.63;917.60;;;35.60;83.50;;;;;;5035539;28;20112;-69
2023/10/07 09:08:43;;;;;;;1038.63;933.90;;;35.60;82.80;;;;;;5035818;28;20116;-69
2023/10/07 09:11:12;;;;;;;1204.32;999.90;;;35.60;81.80;;;;;;5035400;28;20487;-68
2023/10/07 09:13:40;;;;;;;1106.45;995.28;;;35.60;83.10;;;;;;5035488;28;20487;-69
2023/10/07 09:16:07;;;;;;;1093.47;983.10;;;35.50;82.90;;;;;;5035443;28;20101;-69
2023/10/07 09:18:44;;;;;;;1132.20;999.90;;;35.50;81.00;;;;;;5035178;28;20468;-69
2023/10/07 09:21:22;;;;;;;1115.88;998.97;;;35.40;82.90;;;;;;5035318;28;20044;-69
2023/10/07 09:23:51;;;;;;;1147.93;999.90;;;35.40;82.80;;;;;;5035231;28;20030;-69
2023/10/07 09:29:15;;;;;;;1255.53;999.90;;;35.40;82.30;;;;;;5034836;28;20036;-69
2023/10/07 09:31:43;;;;;;;1353.95;999.90;;;35.30;82.70;;;;;;5035043;28;20029;-69
2023/10/07 09:34:10;;;;;;;1379.13;999.90;;;35.20;80.60;;;;;;5035094;28;20036;-69
2023/10/07 09:36:40;;;;;;;1606.53;999.90;;;35.10;82.30;;;;;;5034966;28;20025;-69
2023/10/07 09:39:31;;;;;;;1735.05;999.90;;;35.10;82.50;;;;;;5034503;28;20415;-68
2023/10/07 09:42:04;;;;;;;1681.50;999.90;;;35.10;82.90;;;;;;5031796;28;20038;-69
2023/10/07 09:44:32;;;;;;;1639.57;999.90;;;35.10;82.30;;;;;;5030645;28;20037;-69
2023/10/07 09:47:10;;;;;;;1583.18;999.90;;;35.10;82.10;;;;;;5034309;28;20025;-68
2023/10/07 09:49:37;;;;;;;1389.90;999.90;;;34.90;82.00;;;;;;5034979;28;20025;-68
2023/10/07 09:52:16;;;;;;;1354.38;999.90;;;34.90;84.00;;;;;;5034012;28;20048;-68
2023/10/07 09:54:47;;;;;;;1386.15;999.90;;;34.90;83.20;;;;;;5033803;28;20072;-67
2023/10/07 09:57:29;;;;;;;1565.60;999.90;;;34.80;82.00;;;;;;5034685;28;20475;-66
2023/10/07 10:03:30;;;;;;;1643.15;999.90;;;34.80;83.40;;;;;;5034397;28;20057;-66
2023/10/07 10:06:16;;;;;;;1652.32;999.90;;;34.70;84.50;;;;;;5034461;28;20506;-66
2023/10/07 10:08:47;;;;;;;1597.60;999.90;;;34.70;84.00;;;;;;5034526;28;20121;-69
2023/10/07 10:17:02;;;;;;;1517.88;999.90;;;34.60;85.20;;;;;;5034512;28;20025;-67
2023/10/07 10:22:26;;;;;;;1444.75;999.90;;;34.50;85.30;;;;;;5034130;28;20506;-67
2023/10/07 10:24:57;;;;;;;1611.88;999.90;;;34.50;84.40;;;;;;5034020;28;20033;-70
2023/10/07 10:27:26;;;;;;;1635.90;999.90;;;34.40;85.70;;;;;;5034365;28;20017;-70
2023/10/07 10:29:55;;;;;;;1627.18;999.90;;;34.40;85.50;;;;;;5034160;28;20395;-70
2023/10/07 10:32:29;;;;;;;1604.78;999.90;;;34.40;84.50;;;;;;5034083;28;20064;-70
2023/10/07 10:35:00;;;;;;;1528.07;999.90;;;34.30;84.40;;;;;;5033896;28;20438;-74
2023/10/07 10:37:30;;;;;;;1467.65;999.90;;;34.30;83.30;;;;;;5031093;28;20044;-70
2023/10/07 10:40:05;;;;;;;1625.35;999.90;;;34.20;82.60;;;;;;5033773;28;20073;-69
2023/10/07 10:42:43;;;;;;;1589.13;999.90;;;34.10;84.00;;;;;;5033259;28;20034;-70
2023/10/07 10:45:23;;;;;;;1624.28;999.90;;;34.10;84.30;;;;;;5033799;28;20021;-68
2023/10/07 10:47:52;;;;;;;1613.63;999.90;;;34.00;83.00;;;;;;5034206;28;20099;-69
2023/10/07 10:50:24;;;;;;;1543.82;999.90;;;34.00;85.20;;;;;;5033602;28;20399;-68
2023/10/07 10:52:54;;;;;;;1568.75;999.90;;;34.00;85.00;;;;;;5032851;28;20026;-71
2023/10/07 10:55:24;;;;;;;1509.57;999.90;;;34.00;86.10;;;;;;5030032;28;20033;-69
2023/10/07 10:57:52;;;;;;;1351.18;999.90;;;33.90;86.10;;;;;;5030725;28;20096;-66
2023/10/07 11:00:21;;;;;;;1316.60;999.90;;;33.80;85.80;;;;;;5028932;28;20036;-66
2023/10/07 11:02:50;;;;;;;1537.68;999.90;;;33.80;86.40;;;;;;5027507;28;20052;-65
2023/10/07 11:05:18;;;;;;;1592.68;999.90;;;33.80;87.10;;;;;;5033024;28;20029;-69
2023/10/07 11:07:48;;;;;;;1623.47;999.90;;;33.80;87.60;;;;;;5033916;28;20035;-68
2023/10/07 11:10:25;;;;;;;1533.57;999.90;;;33.80;87.20;;;;;;5033511;28;20515;-66
2023/10/07 11:12:56;;;;;;;1485.55;999.90;;;33.70;87.50;;;;;;5031241;28;20044;-65
2023/10/07 11:15:25;;;;;;;1374.00;999.90;;;33.70;87.00;;;;;;5020311;28;20111;-67
2023/10/07 11:17:56;;;;;;;1404.30;999.90;;;33.60;86.80;;;;;;5029741;28;20055;-67
2023/10/07 11:20:24;;;;;;;1554.43;999.90;;;33.60;87.70;;;;;;5031255;28;20037;-66
2023/10/07 11:22:53;;;;;;;1528.03;999.90;;;33.50;88.60;;;;;;5029646;28;20056;-66
2023/10/07 11:25:22;;;;;;;1613.28;999.90;;;33.50;87.50;;;;;;5030884;28;20026;-66
2023/10/07 11:27:49;;;;;;;1630.45;999.90;;;33.50;89.40;;;;;;5026480;28;20038;-66
2023/10/07 11:30:16;;;;;;;1601.70;999.90;;;33.50;89.20;;;;;;5030550;28;20022;-66
2023/10/07 11:32:43;;;;;;;1623.57;999.90;;;33.40;89.30;;;;;;5032805;28;20021;-67
2023/10/07 11:35:27;;;;;;;1589.00;999.90;;;33.40;90.00;;;;;;5030724;28;20468;-64
2023/10/07 11:37:57;;;;;;;1606.57;999.90;;;33.30;89.00;;;;;;5027004;28;20030;-67
2023/10/07 11:40:25;;;;;;;1623.68;999.90;;;33.30;90.30;;;;;;5023733;28;20053;-66
2023/10/07 11:42:53;;;;;;;1623.72;999.90;;;33.30;90.30;;;;;;5025035;28;20038;-64
2023/10/07 11:45:22;;;;;;;1626.13;999.90;;;33.30;90.10;;;;;;5021934;28;20026;-64
2023/10/07 11:47:57;;;;;;;1630.53;999.90;;;33.20;90.20;;;;;;5027230;28;20104;-66
2023/10/07 11:50:29;;;;;;;1605.22;999.90;;;33.20;90.50;;;;;;5031227;28;20038;-69
2023/10/07 11:52:56;;;;;;;1612.75;999.90;;;33.10;90.60;;;;;;5026194;28;20506;-63
2023/10/07 11:55:23;;;;;;;1616.40;999.90;;;33.10;90.70;;;;;;5026983;28;20099;-66
2023/10/07 11:57:49;;;;;;;1624.90;999.90;;;33.10;91.10;;;;;;5030535;28;20026;-69
2023/10/07 12:00:37;;;;;;;1626.82;999.90;;;33.00;91.20;;;;;;5022505;28;20527;-69
2023/10/07 12:03:07;;;;;;;1636.13;999.90;;;33.00;90.80;;;;;;5028849;28;20079;-69
2023/10/07 12:05:38;;;;;;;1621.35;999.90;;;32.90;90.40;;;;;;5026621;28;20476;-69
2023/10/07 12:08:05;;;;;;;1619.47;999.90;;;32.80;90.70;;;;;;5023784;28;20446;-69
2023/10/07 12:10:33;;;;;;;1604.03;999.90;;;32.70;90.60;;;;;;5026071;28;20507;-69
2023/10/07 12:13:03;;;;;;;1607.15;999.90;;;32.70;90.40;;;;;;5022849;28;20025;-68
2023/10/07 12:15:30;;;;;;;1625.53;999.90;;;32.60;90.00;;;;;;5022125;28;20014;-69
2023/10/07 12:17:57;;;;;;;1618.65;999.90;;;32.60;90.20;;;;;;5022271;28;20033;-67
2023/10/07 12:20:23;;;;;;;1604.60;999.90;;;32.60;90.50;;;;;;5023634;28;20024;-68
2023/10/07 12:22:50;;;;;;;1604.75;999.90;;;32.50;89.50;;;;;;5022252;28;20026;-68
2023/10/07 12:25:18;;;;;;;1602.53;999.90;;;32.50;90.30;;;;;;5022033;28;20029;-67
2023/10/07 12:27:48;;;;;;;1614.60;999.90;;;32.50;89.00;;;;;;5021582;28;20053;-67
2023/10/07 12:30:21;;;;;;;1609.70;999.90;;;32.40;89.10;;;;;;5022086;28;20026;-67
2023/10/07 12:32:49;;;;;;;1591.95;999.90;;;32.30;89.40;;;;;;5026077;28;20024;-68
2023/10/07 12:35:17;;;;;;;1582.50;999.90;;;32.30;88.50;;;;;;5023130;28;20025;-68
2023/10/07 12:37:53;;;;;;;1593.55;999.90;;;32.20;88.70;;;;;;5021397;28;20034;-68
2023/10/07 12:40:20;;;;;;;1591.68;999.90;;;32.20;90.10;;;;;;5021569;28;20084;-67
2023/10/07 12:42:51;;;;;;;1604.90;999.90;;;32.20;90.00;;;;;;5026872;28;20096;-69
2023/10/07 12:45:18;;;;;;;1610.70;999.90;;;32.10;89.80;;;;;;5027000;28;20030;-68
2023/10/07 12:47:51;;;;;;;1595.28;999.90;;;32.10;90.10;;;;;;5025032;28;20485;-67
2023/10/07 12:50:20;;;;;;;1611.00;999.90;;;32.10;90.20;;;;;;5025198;28;20534;-67
2023/10/07 12:52:48;;;;;;;1621.95;999.90;;;32.00;90.30;;;;;;5025637;28;20558;-70
2023/10/07 12:55:16;;;;;;;1567.72;999.90;;;32.10;90.60;;;;;;5016374;28;20468;-69
2023/10/07 12:57:42;;;;;;;1616.80;999.90;;;32.00;90.70;;;;;;5016396;28;20030;-67
2023/10/07 13:00:19;;;;;;;1606.80;999.90;;;31.90;90.60;;;;;;5016519;28;20469;-66
2023/10/07 13:02:47;;;;;;;1604.53;999.90;;;31.90;91.50;;;;;;5016198;28;20022;-67
2023/10/07 13:05:19;;;;;;;1590.93;999.90;;;31.80;91.60;;;;;;5020244;28;20108;-69
2023/10/07 13:07:49;;;;;;;1584.50;999.90;;;31.80;92.00;;;;;;5019542;28;20080;-71
2023/10/07 13:10:17;;;;;;;1565.32;999.90;;;31.80;92.30;;;;;;5021440;28;20476;-71
2023/10/07 13:12:46;;;;;;;1570.93;999.90;;;31.70;92.60;;;;;;5022287;28;20028;-70
2023/10/07 13:15:14;;;;;;;1583.00;999.90;;;31.70;93.30;;;;;;5035879;28;20384;-70
2023/10/07 13:17:45;;;;;;;1571.53;999.90;;;31.70;93.60;;;;;;5035827;28;20029;-70
2023/10/07 13:20:20;;;;;;;1565.95;999.90;;;31.60;93.90;;;;;;5034928;28;20366;-70
2023/10/07 13:22:48;;;;;;;1561.15;999.90;;;31.50;94.50;;;;;;5032338;28;20056;-69
2023/10/07 13:25:19;;;;;;;1572.47;999.90;;;31.60;94.50;;;;;;5025467;28;20033;-69
2023/10/07 13:27:46;;;;;;;1582.90;999.90;;;31.50;94.40;;;;;;5024596;28;20079;-71
2023/10/07 13:30:16;;;;;;;1585.50;999.90;;;31.50;95.00;;;;;;5026145;28;20091;-70
2023/10/07 13:32:46;;;;;;;1574.78;999.90;;;31.40;95.10;;;;;;5026362;28;20029;-70
2023/10/07 13:35:15;;;;;;;1586.13;999.90;;;31.40;95.40;;;;;;5026454;28;20028;-72